KSVN

Hunter AAF Airport

Savannah, Georgia, USA
METAR KSVN 190656Z AUTO 27004KT 10SM CLR M03/M07 A3030 RMK AO2 SLP264 T10281075 $
Observed Flight Rules
Jan-19 @ 06:56 UTC (28 minutes ago) Visual Flight Rules
Wind Visibility Clouds
270° at 4 knots 10 miles
  • Clear skies
Temperatures Readings
Current -3°C / 27°F
Dewpoint -8°C / 18°F
Humidity 69%
Altimeter 30.3" Hg
Pressure 1026.4 hPa
Elevation 13
METAR KSVN 190656Z AUTO 27004KT 10SM CLR M03/M07 A3030 RMK AO2 SLP264 T10281075 $
Observed Flight Rules
Jan-19 @ 06:56 UTC
(28 minutes ago)
VFR
Wind Visibility
270° at 4 knots 10 miles
Clouds
  • Clear skies
Temperature Dewpoint
-3°C / 27°F -8°C / 18°F
Humidity Altimeter Pressure
69% 30.3" Hg 1026.4 hPa